aviador You're here:

EVRA Decoded Metar

RIGA AIRPORT in LATVIA
Report Time2018-06-24 08:50:00
UTC Time2018-06-24 09:25:31
Flight Rules vfr VFR
Wind340° at 09 kt
W.Decomp.*RWY 36: 8.0 kt HW 4.1 kt LCW
W.Rank340° ranks 8
Current wind is above 340° avg. (8.4)
Visibility9999 m
Phenomena:Light Rain
Clouds:Scattered 034 Hf
Overcast 040 Hf
Expected CloudBase > 1,200 ft AGL from Temp-Dew spread
Ceiling4,000 ft
Temp13°C (ISA -2)
Dew Point10°C (82% RH)
AAT9.8°C
QNH1009 hPa
Density Alt105 ft
Elevation33 ft
Report Wrong Elevation
Raw Report
EVRA 240850Z 34009KT 9999 -RA SCT034 OVC040 13/10 Q1009 NOSIG=

Extra information for EVRA:More info

Metar Taf Metar & Taf Last 4 Metars F.Rules Stats Wind Profile Meteogram Temp Stats Airport Information Weather charts Add Link Nearby VenuesMetar ALERT Operation Metar Decoded Social comments